createdAt,value
2018-03-31T00:01:49.803Z,71.12
2018-03-31T00:04:17.536Z,71.16
2018-03-31T00:06:45.271Z,69.51
2018-03-31T00:09:12.987Z,71.09
2018-03-31T00:11:41.187Z,71.10
2018-03-31T00:14:08.913Z,71.18
2018-03-31T00:16:36.643Z,70.77
2018-03-31T00:19:04.358Z,70.76
2018-03-31T00:21:32.086Z,70.22
2018-03-31T00:23:59.823Z,70.58
2018-03-31T00:26:27.555Z,69.25
2018-03-31T00:28:55.276Z,68.78
2018-03-31T00:31:23.157Z,69.84
2018-03-31T00:33:50.892Z,69.68
2018-03-31T00:36:18.603Z,71.04
2018-03-31T00:38:46.338Z,70.90
2018-03-31T00:41:14.064Z,70.79
2018-03-31T00:43:41.803Z,70.83
2018-03-31T00:46:09.518Z,70.72
2018-03-31T00:48:37.244Z,70.92
2018-03-31T00:51:04.967Z,70.90
2018-03-31T00:53:32.936Z,70.62
2018-03-31T00:56:07.955Z,70.25
2018-03-31T00:58:35.679Z,70.14
2018-03-31T01:01:04.327Z,71.52
2018-03-31T01:03:32.079Z,71.14
2018-03-31T01:05:59.792Z,71.18
2018-03-31T01:08:27.525Z,69.63
2018-03-31T01:10:55.255Z,69.11
2018-03-31T01:13:23.004Z,69.39
2018-03-31T01:15:50.740Z,71.87
2018-03-31T01:18:18.539Z,73.07
2018-03-31T01:20:46.260Z,72.93
2018-03-31T01:23:13.995Z,71.78
2018-03-31T01:25:41.731Z,72.01
2018-03-31T01:28:09.464Z,70.90
2018-03-31T01:30:37.196Z,69.87
2018-03-31T01:33:04.919Z,69.93
2018-03-31T01:35:32.652Z,70.09
2018-03-31T01:38:00.396Z,70.03
2018-03-31T01:40:28.137Z,70.32
2018-03-31T01:42:55.871Z,69.32
2018-03-31T01:45:23.639Z,69.88
2018-03-31T01:47:51.355Z,70.45
2018-03-31T01:50:19.087Z,69.96
2018-03-31T01:52:46.826Z,70.70
2018-03-31T01:55:14.594Z,69.89
2018-03-31T01:57:42.324Z,69.81
2018-03-31T02:00:10.057Z,70.01
2018-03-31T02:02:37.771Z,70.62
2018-03-31T02:05:05.499Z,70.79
2018-03-31T02:07:33.224Z,71.16
2018-03-31T02:10:00.963Z,71.05
2018-03-31T02:12:28.688Z,69.71
2018-03-31T02:14:56.411Z,69.99
2018-03-31T02:17:24.135Z,69.85
2018-03-31T02:19:51.859Z,68.96
2018-03-31T02:22:19.591Z,69.26
2018-03-31T02:24:47.311Z,69.83
2018-03-31T02:27:15.047Z,70.43
2018-03-31T02:29:42.767Z,70.85
2018-03-31T02:32:10.499Z,71.34
2018-03-31T02:34:38.228Z,71.80
2018-03-31T02:37:05.973Z,71.14
2018-03-31T02:39:33.700Z,70.43
2018-03-31T02:42:01.432Z,71.49
2018-03-31T02:44:29.177Z,70.96
2018-03-31T02:46:56.892Z,71.71
2018-03-31T02:49:35.328Z,70.36
2018-03-31T02:52:03.072Z,70.18
2018-03-31T02:54:30.788Z,69.53
2018-03-31T02:56:58.520Z,69.97
2018-03-31T02:59:26.247Z,69.17
2018-03-31T03:01:53.964Z,70.32
2018-03-31T03:04:21.699Z,70.39
2018-03-31T03:06:49.423Z,70.54
2018-03-31T03:09:17.164Z,71.79
2018-03-31T03:11:44.905Z,71.88
2018-03-31T03:14:12.646Z,71.87
2018-03-31T03:16:40.096Z,71.86
2018-03-31T03:19:07.551Z,72.01
2018-03-31T03:21:34.999Z,72.24
2018-03-31T03:24:02.453Z,72.19
2018-03-31T03:26:29.895Z,71.83
2018-03-31T03:28:57.395Z,72.51
2018-03-31T03:31:24.829Z,73.31
2018-03-31T03:33:52.328Z,74.48
2018-03-31T03:36:19.772Z,73.41
2018-03-31T03:38:47.231Z,74.09
2018-03-31T03:41:14.688Z,73.11
2018-03-31T03:43:42.144Z,72.83
2018-03-31T03:46:09.596Z,73.39
2018-03-31T03:48:37.072Z,73.42
2018-03-31T03:51:04.529Z,72.99
2018-03-31T03:53:31.975Z,73.37
2018-03-31T03:55:59.443Z,73.73
2018-03-31T03:58:26.901Z,73.29
2018-03-31T04:00:54.361Z,72.81
2018-03-31T04:03:21.804Z,72.72
2018-03-31T04:05:49.261Z,72.56
2018-03-31T04:08:16.712Z,73.07
2018-03-31T04:10:44.159Z,73.43
2018-03-31T04:13:11.633Z,71.59
2018-03-31T04:15:39.068Z,71.79
2018-03-31T04:18:06.547Z,71.76
2018-03-31T04:20:34.007Z,72.08
2018-03-31T04:23:01.451Z,71.18
2018-03-31T04:25:28.912Z,71.54
2018-03-31T04:27:56.363Z,72.09
2018-03-31T04:30:23.844Z,70.75
2018-03-31T04:32:51.290Z,71.47
2018-03-31T04:35:18.770Z,71.09
2018-03-31T04:37:46.229Z,72.17
2018-03-31T04:40:13.670Z,73.04
2018-03-31T04:42:41.128Z,72.38
2018-03-31T04:45:08.576Z,72.35
2018-03-31T04:47:36.032Z,71.54
2018-03-31T04:50:03.486Z,71.47
2018-03-31T04:52:30.947Z,73.44
2018-03-31T04:54:58.413Z,73.00
2018-03-31T04:57:25.860Z,75.98
2018-03-31T04:59:53.427Z,74.72
2018-03-31T05:02:20.886Z,73.63
2018-03-31T05:04:48.338Z,73.73
2018-03-31T05:07:15.792Z,73.78
2018-03-31T05:09:43.263Z,74.04
2018-03-31T05:12:10.719Z,73.51
2018-03-31T05:14:38.163Z,73.95
2018-03-31T05:17:05.624Z,74.27
2018-03-31T05:19:33.080Z,74.14
2018-03-31T05:22:00.543Z,74.86
2018-03-31T05:24:27.992Z,73.62
2018-03-31T05:26:55.452Z,74.09
2018-03-31T05:29:22.915Z,73.84
2018-03-31T05:31:50.364Z,74.20
2018-03-31T05:34:17.829Z,74.16
2018-03-31T05:36:45.280Z,72.81
2018-03-31T05:39:12.743Z,73.33
2018-03-31T05:41:40.577Z,73.60
2018-03-31T05:44:08.003Z,74.63
2018-03-31T05:46:35.461Z,75.28
2018-03-31T05:49:02.916Z,75.75
2018-03-31T05:51:30.368Z,75.59
2018-03-31T05:53:57.819Z,74.79
2018-03-31T05:56:25.265Z,74.34
2018-03-31T05:58:52.752Z,76.20
2018-03-31T06:01:20.196Z,75.13
2018-03-31T06:03:47.656Z,75.03
2018-03-31T06:06:15.099Z,76.28
2018-03-31T06:08:42.556Z,76.11
2018-03-31T06:11:10.007Z,76.29
2018-03-31T06:13:37.539Z,76.01
2018-03-31T06:16:04.993Z,74.92
2018-03-31T06:18:32.527Z,73.95
2018-03-31T06:21:00.001Z,75.42
2018-03-31T06:23:27.462Z,75.83
2018-03-31T06:25:54.915Z,74.99
2018-03-31T06:28:22.363Z,75.01
2018-03-31T06:30:49.823Z,74.66
2018-03-31T06:33:17.275Z,73.23
2018-03-31T06:35:44.735Z,72.96
2018-03-31T06:38:12.184Z,73.74
2018-03-31T06:40:39.647Z,75.21
2018-03-31T06:43:07.111Z,74.53
2018-03-31T06:45:34.627Z,76.00
2018-03-31T06:48:02.075Z,76.07
2018-03-31T06:50:29.532Z,75.79
2018-03-31T06:52:56.983Z,75.95
2018-03-31T06:55:24.440Z,75.48
2018-03-31T06:57:51.883Z,75.66
2018-03-31T07:00:19.332Z,75.39
2018-03-31T07:02:46.842Z,76.13
2018-03-31T07:05:14.291Z,73.58
2018-03-31T07:07:41.748Z,70.44
2018-03-31T07:10:09.250Z,70.16
2018-03-31T07:12:36.651Z,67.87
2018-03-31T07:15:04.100Z,68.00
2018-03-31T07:17:31.548Z,66.23
2018-03-31T07:19:59.025Z,61.23
2018-03-31T07:22:26.468Z,61.88
2018-03-31T07:24:53.916Z,59.87
2018-03-31T07:27:21.379Z,60.38
2018-03-31T07:29:48.825Z,56.02
2018-03-31T07:32:16.283Z,56.97
2018-03-31T07:34:43.739Z,55.99
2018-03-31T07:37:11.196Z,61.27
2018-03-31T07:39:38.643Z,62.99
2018-03-31T07:42:06.145Z,56.85
2018-03-31T07:44:33.587Z,58.47
2018-03-31T07:47:01.035Z,58.79
2018-03-31T07:49:28.499Z,56.42
2018-03-31T07:51:55.947Z,58.15
2018-03-31T07:54:23.408Z,57.10
2018-03-31T07:56:50.855Z,57.07
2018-03-31T07:59:18.315Z,54.20
2018-03-31T08:01:45.767Z,55.69
2018-03-31T08:04:13.223Z,54.90
2018-03-31T08:06:40.672Z,54.62
2018-03-31T08:09:08.142Z,54.98
2018-03-31T08:11:35.588Z,53.65
2018-03-31T08:14:03.051Z,52.42
2018-03-31T08:16:30.505Z,53.71
2018-03-31T08:18:57.956Z,53.23
2018-03-31T08:21:25.407Z,53.24
2018-03-31T08:23:52.860Z,51.54
2018-03-31T08:26:20.303Z,50.19
2018-03-31T08:28:47.747Z,50.72
2018-03-31T08:31:15.192Z,52.30
2018-03-31T08:33:42.651Z,51.68
2018-03-31T08:36:10.096Z,48.81
2018-03-31T08:38:37.539Z,47.62
2018-03-31T08:41:05.006Z,48.92
2018-03-31T08:43:32.458Z,48.28
2018-03-31T08:45:59.910Z,46.79
2018-03-31T08:48:27.347Z,47.58
2018-03-31T08:50:54.812Z,45.74
2018-03-31T08:53:22.257Z,44.12
2018-03-31T08:55:49.723Z,46.58
2018-03-31T08:58:17.172Z,44.66
2018-03-31T09:00:46.032Z,45.19
2018-03-31T09:03:13.484Z,43.95
2018-03-31T09:05:40.943Z,44.44
2018-03-31T09:08:08.397Z,39.88
2018-03-31T09:10:35.851Z,41.29
2018-03-31T09:13:03.295Z,40.30
2018-03-31T09:15:30.764Z,40.23
2018-03-31T09:17:58.210Z,40.58
2018-03-31T09:20:25.669Z,41.39
2018-03-31T09:22:53.107Z,39.53
2018-03-31T09:25:20.559Z,37.53
2018-03-31T09:27:48.020Z,38.28
2018-03-31T09:30:15.471Z,39.52
2018-03-31T09:32:42.927Z,38.55
2018-03-31T09:35:34.008Z,37.03
2018-03-31T09:38:01.467Z,35.09
2018-03-31T09:40:28.915Z,36.99
2018-03-31T09:42:56.374Z,36.39
2018-03-31T09:45:23.824Z,36.02
2018-03-31T09:47:51.283Z,33.70
2018-03-31T09:50:18.729Z,34.01
2018-03-31T09:52:46.184Z,35.56
2018-03-31T09:55:13.739Z,31.94
2018-03-31T09:57:41.191Z,33.75
2018-03-31T10:00:08.633Z,32.42
2018-03-31T10:02:36.088Z,34.09
2018-03-31T10:05:03.530Z,33.65
2018-03-31T10:07:31.011Z,34.10
2018-03-31T10:09:58.451Z,36.01
2018-03-31T10:12:25.933Z,34.53
2018-03-31T10:14:53.443Z,34.55
2018-03-31T10:17:20.904Z,35.46
2018-03-31T10:19:48.356Z,37.72
2018-03-31T10:22:15.876Z,34.72
2018-03-31T10:24:43.333Z,34.12
2018-03-31T10:27:17.493Z,33.90
2018-03-31T10:29:44.959Z,36.55
2018-03-31T10:32:12.420Z,36.19
2018-03-31T10:34:39.876Z,36.77
2018-03-31T10:37:09.345Z,35.51
2018-03-31T10:39:36.802Z,35.97
2018-03-31T10:42:04.271Z,36.65
2018-03-31T10:44:31.723Z,41.20
2018-03-31T10:46:59.171Z,36.64
2018-03-31T10:49:26.634Z,43.94
2018-03-31T10:51:54.076Z,37.81
2018-03-31T10:54:21.532Z,43.05
2018-03-31T10:56:49.003Z,38.36
2018-03-31T10:59:17.568Z,35.45
2018-03-31T11:01:45.012Z,31.88
2018-03-31T11:04:12.848Z,36.76
2018-03-31T11:06:40.288Z,31.90
2018-03-31T11:09:07.736Z,37.41
2018-03-31T11:11:35.245Z,43.65
2018-03-31T11:14:02.692Z,35.03
2018-03-31T11:16:30.160Z,43.33
2018-03-31T11:18:58.143Z,32.86
2018-03-31T11:21:25.642Z,37.01
2018-03-31T11:23:54.081Z,35.15
2018-03-31T11:26:21.546Z,35.14
2018-03-31T11:28:48.988Z,36.55
2018-03-31T11:31:16.455Z,42.43
2018-03-31T11:33:43.908Z,35.06
2018-03-31T11:36:11.367Z,34.45
2018-03-31T11:38:38.815Z,36.81
2018-03-31T11:41:06.271Z,34.70
2018-03-31T11:43:33.728Z,33.81
2018-03-31T11:46:01.172Z,39.17
2018-03-31T11:48:28.608Z,38.36
2018-03-31T11:50:56.059Z,39.03
2018-03-31T11:53:23.532Z,33.66
2018-03-31T11:55:50.993Z,32.88
2018-03-31T11:58:18.425Z,41.92
2018-03-31T12:00:45.888Z,34.38
2018-03-31T12:03:13.368Z,34.12
2018-03-31T12:05:40.816Z,33.45
2018-03-31T12:08:08.268Z,40.67
2018-03-31T12:10:35.734Z,37.00
2018-03-31T12:13:03.196Z,34.07
2018-03-31T12:15:30.706Z,33.89
2018-03-31T12:17:58.136Z,34.89
2018-03-31T12:20:25.612Z,41.94
2018-03-31T12:22:53.068Z,40.79
2018-03-31T12:25:20.528Z,40.33
2018-03-31T12:27:47.984Z,38.09
2018-03-31T12:30:15.523Z,33.22
2018-03-31T12:32:45.336Z,33.63
2018-03-31T12:35:13.803Z,32.78
2018-03-31T12:37:41.381Z,32.76
2018-03-31T12:40:08.920Z,38.05
2018-03-31T12:42:36.398Z,34.11
2018-03-31T12:45:03.892Z,34.09
2018-03-31T12:47:31.336Z,36.90
2018-03-31T12:49:58.822Z,35.96
2018-03-31T12:52:26.372Z,33.38
2018-03-31T12:54:53.878Z,34.65
2018-03-31T12:57:21.323Z,34.50
2018-03-31T12:59:48.784Z,35.61
2018-03-31T13:02:16.232Z,34.39
2018-03-31T13:04:43.690Z,34.95
2018-03-31T13:07:11.131Z,35.32
2018-03-31T13:09:38.595Z,34.31
2018-03-31T13:12:06.037Z,36.22
2018-03-31T13:14:33.492Z,34.83
2018-03-31T13:17:00.935Z,36.96
2018-03-31T13:19:28.392Z,37.15
2018-03-31T13:21:55.839Z,32.94
2018-03-31T13:24:23.327Z,34.07
2018-03-31T13:26:50.767Z,34.16
2018-03-31T13:29:18.253Z,32.41
2018-03-31T13:31:45.681Z,33.77
2018-03-31T13:34:13.135Z,37.40
2018-03-31T13:36:40.628Z,35.73
2018-03-31T13:39:08.076Z,34.02
2018-03-31T13:41:35.527Z,35.40
2018-03-31T13:44:02.977Z,35.39
2018-03-31T13:46:30.436Z,34.05
2018-03-31T13:48:57.881Z,36.03
2018-03-31T13:51:25.337Z,34.66
2018-03-31T13:53:52.791Z,34.87
2018-03-31T13:56:20.297Z,40.75
2018-03-31T13:58:47.691Z,34.08
2018-03-31T14:01:15.158Z,34.89
2018-03-31T14:03:42.617Z,39.14
2018-03-31T14:06:10.080Z,34.83
2018-03-31T14:08:37.524Z,36.29
2018-03-31T14:11:04.976Z,36.62
2018-03-31T14:13:32.428Z,36.22
2018-03-31T14:15:59.888Z,31.89
2018-03-31T14:18:27.353Z,31.71
2018-03-31T14:20:54.835Z,33.63
2018-03-31T14:23:22.293Z,32.18
2018-03-31T14:25:49.744Z,32.95
2018-03-31T14:28:17.227Z,31.96
2018-03-31T14:30:44.681Z,33.17
2018-03-31T14:33:12.135Z,33.79
2018-03-31T14:35:39.586Z,31.87
2018-03-31T14:38:07.039Z,32.60
2018-03-31T14:40:34.485Z,33.22
2018-03-31T14:43:01.944Z,33.63
2018-03-31T14:45:29.413Z,33.71
2018-03-31T14:47:56.871Z,34.24
2018-03-31T14:50:24.314Z,33.62
2018-03-31T14:52:51.768Z,34.32
2018-03-31T14:55:19.256Z,35.72
2018-03-31T14:57:46.760Z,38.92
2018-03-31T15:00:14.216Z,36.50
2018-03-31T15:02:41.697Z,37.57
2018-03-31T15:05:09.148Z,35.94
2018-03-31T15:07:36.959Z,37.68
2018-03-31T15:10:04.405Z,36.37
2018-03-31T15:12:31.847Z,36.27
2018-03-31T15:14:59.303Z,39.20
2018-03-31T15:17:26.752Z,36.37
2018-03-31T15:19:54.204Z,36.68
2018-03-31T15:22:21.667Z,41.73
2018-03-31T15:24:49.123Z,37.55
2018-03-31T15:27:16.572Z,37.70
2018-03-31T15:29:44.024Z,36.61
2018-03-31T15:32:16.746Z,38.20
2018-03-31T15:34:45.110Z,39.01
2018-03-31T15:37:12.551Z,39.29
2018-03-31T15:39:40.001Z,36.87
2018-03-31T15:42:07.448Z,35.19
2018-03-31T15:44:34.912Z,36.17
2018-03-31T15:47:02.357Z,35.20
2018-03-31T15:49:30.709Z,37.19
2018-03-31T15:51:58.156Z,37.36
2018-03-31T15:54:25.633Z,37.10
2018-03-31T15:56:53.060Z,33.60
2018-03-31T15:59:20.534Z,34.03
2018-03-31T16:01:48.016Z,33.46
2018-03-31T16:04:15.428Z,33.46
2018-03-31T16:06:43.320Z,34.58
2018-03-31T16:09:10.756Z,34.41
2018-03-31T16:11:38.207Z,34.71
2018-03-31T16:14:05.648Z,35.10
2018-03-31T16:16:33.103Z,34.91
2018-03-31T16:19:00.549Z,35.03
2018-03-31T16:21:28.009Z,34.30
2018-03-31T16:23:55.460Z,35.12
2018-03-31T16:26:22.910Z,35.43
2018-03-31T16:28:51.304Z,36.00
2018-03-31T16:31:18.748Z,36.10
2018-03-31T16:33:46.208Z,36.30
2018-03-31T16:36:13.656Z,36.48
2018-03-31T16:38:41.104Z,36.84
2018-03-31T16:41:08.550Z,37.30
2018-03-31T16:43:36.013Z,37.52
2018-03-31T16:46:03.464Z,37.44
2018-03-31T16:48:33.827Z,37.54
2018-03-31T16:51:01.270Z,38.16
2018-03-31T16:53:28.728Z,38.18
2018-03-31T16:55:56.176Z,38.58
2018-03-31T16:58:23.631Z,39.13
2018-03-31T17:00:51.162Z,38.98
2018-03-31T17:03:18.599Z,38.89
2018-03-31T17:05:46.058Z,39.03
2018-03-31T17:08:13.495Z,38.99
2018-03-31T17:10:40.959Z,39.68
2018-03-31T17:13:08.443Z,39.28
2018-03-31T17:15:35.916Z,38.40
2018-03-31T17:18:03.367Z,37.99
2018-03-31T17:20:30.848Z,38.14
2018-03-31T17:22:58.354Z,39.20
2018-03-31T17:25:25.748Z,38.91
2018-03-31T17:27:53.208Z,38.63
2018-03-31T17:30:20.691Z,39.08
2018-03-31T17:32:48.112Z,38.59
2018-03-31T17:35:15.563Z,39.51
2018-03-31T17:37:43.024Z,39.16
2018-03-31T17:40:10.468Z,39.40
2018-03-31T17:42:37.937Z,39.90
2018-03-31T17:45:05.387Z,40.22
2018-03-31T17:47:32.844Z,41.30
2018-03-31T17:50:00.288Z,41.47
2018-03-31T17:52:29.398Z,41.41
2018-03-31T17:54:56.988Z,41.61
2018-03-31T17:57:24.431Z,42.05
2018-03-31T17:59:51.894Z,41.74
2018-03-31T18:02:19.407Z,41.53
2018-03-31T18:04:46.864Z,41.64
2018-03-31T18:07:14.310Z,42.13
2018-03-31T18:09:41.763Z,42.39
2018-03-31T18:12:09.213Z,42.48
2018-03-31T18:14:36.667Z,42.69
2018-03-31T18:17:04.152Z,42.67
2018-03-31T18:19:31.600Z,42.55
2018-03-31T18:21:59.048Z,42.51
2018-03-31T18:24:26.513Z,42.82
2018-03-31T18:26:53.956Z,43.00
2018-03-31T18:29:21.404Z,42.71
2018-03-31T18:31:48.864Z,43.13
2018-03-31T18:34:16.307Z,42.82
2018-03-31T18:36:43.764Z,42.74
2018-03-31T18:39:11.220Z,43.22
2018-03-31T18:41:38.667Z,43.05
2018-03-31T18:44:06.116Z,43.30
2018-03-31T18:46:33.575Z,43.57
2018-03-31T18:49:01.081Z,43.42
2018-03-31T18:51:28.543Z,43.43
2018-03-31T18:53:56.020Z,43.67
2018-03-31T18:56:23.479Z,43.58
2018-03-31T18:58:50.924Z,43.96
2018-03-31T19:01:18.371Z,44.05
2018-03-31T19:03:45.824Z,44.17
2018-03-31T19:06:13.280Z,44.98
2018-03-31T19:08:40.736Z,44.69
2018-03-31T19:11:08.184Z,45.42
2018-03-31T19:13:35.846Z,45.43
2018-03-31T19:16:03.288Z,45.50
2018-03-31T19:18:30.748Z,45.49
2018-03-31T19:20:58.201Z,46.07
2018-03-31T19:23:25.659Z,46.01
2018-03-31T19:25:53.103Z,46.25
2018-03-31T19:28:20.817Z,46.73
2018-03-31T19:30:50.047Z,46.39
2018-03-31T19:33:17.499Z,47.54
2018-03-31T19:35:50.572Z,46.21
2018-03-31T19:38:18.068Z,46.86
2018-03-31T19:40:45.524Z,47.25
2018-03-31T19:43:12.972Z,47.15
2018-03-31T19:45:40.431Z,47.24
2018-03-31T19:48:07.880Z,47.19
2018-03-31T19:50:35.374Z,45.62
2018-03-31T19:53:02.779Z,45.18
2018-03-31T19:55:30.240Z,44.95
2018-03-31T19:57:57.707Z,45.15
2018-03-31T20:00:25.172Z,45.43
2018-03-31T20:02:52.620Z,45.48
2018-03-31T20:05:20.063Z,45.59
2018-03-31T20:07:47.516Z,45.05
2018-03-31T20:10:14.994Z,46.01
2018-03-31T20:12:42.415Z,46.86
2018-03-31T20:15:09.863Z,47.85
2018-03-31T20:17:37.324Z,48.74
2018-03-31T20:20:04.772Z,50.03
2018-03-31T20:22:33.273Z,50.27
2018-03-31T20:25:00.727Z,50.66
2018-03-31T20:27:28.175Z,52.31
2018-03-31T20:29:55.628Z,52.99
2018-03-31T20:32:23.091Z,52.80
2018-03-31T20:34:50.544Z,53.20
2018-03-31T20:37:17.991Z,53.01
2018-03-31T20:39:45.459Z,53.46
2018-03-31T20:42:12.896Z,53.89
2018-03-31T20:44:40.354Z,54.15
2018-03-31T20:47:07.801Z,53.51
2018-03-31T20:49:35.259Z,54.77
2018-03-31T20:52:02.703Z,54.67
2018-03-31T20:54:30.165Z,53.93
2018-03-31T20:56:57.622Z,54.18
2018-03-31T20:59:25.075Z,54.20
2018-03-31T21:01:52.523Z,55.11
2018-03-31T21:04:19.963Z,55.48
2018-03-31T21:06:47.419Z,55.73
2018-03-31T21:09:14.864Z,55.47
2018-03-31T21:11:42.315Z,55.30
2018-03-31T21:14:09.768Z,55.24
2018-03-31T21:16:37.278Z,54.26
2018-03-31T21:19:04.666Z,54.38
2018-03-31T21:21:32.117Z,54.18
2018-03-31T21:23:59.565Z,53.99
2018-03-31T21:26:27.023Z,54.54
2018-03-31T21:28:54.493Z,54.85
2018-03-31T21:31:21.940Z,54.44
2018-03-31T21:33:49.396Z,54.49
2018-03-31T21:36:16.847Z,54.58
2018-03-31T21:38:44.303Z,54.45
2018-03-31T21:41:12.297Z,53.95
2018-03-31T21:43:39.750Z,54.12
2018-03-31T21:46:07.196Z,53.89
2018-03-31T21:48:34.660Z,53.97
2018-03-31T21:51:02.109Z,53.59
2018-03-31T21:53:29.568Z,53.48
2018-03-31T21:55:57.023Z,54.22
2018-03-31T21:58:24.777Z,54.38
2018-03-31T22:00:52.219Z,54.14
2018-03-31T22:03:19.667Z,54.03
2018-03-31T22:05:47.189Z,54.45
2018-03-31T22:08:14.609Z,55.31
2018-03-31T22:10:42.065Z,55.94
2018-03-31T22:13:15.052Z,54.91
2018-03-31T22:15:48.004Z,56.13
2018-03-31T22:18:15.448Z,56.49
2018-03-31T22:20:42.895Z,56.45
2018-03-31T22:23:10.339Z,54.23
2018-03-31T22:25:37.797Z,55.85
2018-03-31T22:28:05.244Z,56.21
2018-03-31T22:30:32.711Z,56.06
2018-03-31T22:33:00.163Z,56.32
2018-03-31T22:35:28.284Z,57.24
2018-03-31T22:37:55.749Z,58.04
2018-03-31T22:40:23.192Z,58.61
2018-03-31T22:42:50.657Z,59.62
2018-03-31T22:45:18.113Z,58.58
2018-03-31T22:47:45.575Z,58.13
2018-03-31T22:50:13.023Z,59.17
2018-03-31T22:52:40.484Z,60.12
2018-03-31T22:55:07.930Z,59.44
2018-03-31T22:57:35.632Z,59.91
2018-03-31T23:00:03.077Z,59.79
2018-03-31T23:02:30.528Z,59.50
2018-03-31T23:04:58.271Z,60.10
2018-03-31T23:07:26.000Z,60.03
2018-03-31T23:09:53.732Z,59.52
2018-03-31T23:12:21.494Z,60.51
2018-03-31T23:14:49.195Z,59.54
2018-03-31T23:17:16.915Z,59.92
2018-03-31T23:19:44.653Z,60.13
2018-03-31T23:22:12.375Z,60.29
2018-03-31T23:24:40.112Z,60.49
2018-03-31T23:27:07.842Z,59.72
2018-03-31T23:29:35.596Z,60.86
2018-03-31T23:32:03.324Z,60.60
2018-03-31T23:34:31.112Z,60.43
2018-03-31T23:36:58.792Z,60.90
2018-03-31T23:39:26.235Z,60.42
2018-03-31T23:41:53.692Z,60.85
2018-03-31T23:44:21.136Z,60.92
2018-03-31T23:46:48.601Z,60.41
2018-03-31T23:49:16.046Z,61.24
2018-03-31T23:51:43.512Z,60.29
2018-03-31T23:54:10.963Z,60.77
2018-03-31T23:56:38.419Z,60.55
2018-03-31T23:59:05.884Z,60.54
